Time;durP1;ratioP1;P1;durP2;ratioP2;P2;SDS_P1;SDS_P2;PMS_P1;PMS_P2;Temp;Humidity;BMP_temperature;BMP_pressure;BME280_temperature;BME280_humidity;BME280_pressure;Samples;Min_cycle;Max_cycle;Signal;HPM_P1;HPM_P2
2022/10/22 00:01:49;;;;;;;13.00;9.40;;;14.00;99.90;;;;;;5075302;28;20043;-78
2022/10/22 00:04:15;;;;;;;11.68;9.32;;;14.00;99.90;;;;;;5103825;28;20055;-77
2022/10/22 00:06:43;;;;;;;11.20;9.75;;;13.60;99.90;;;;;;5072880;28;20035;-78
2022/10/22 00:09:13;;;;;;;14.25;9.52;;;13.80;99.90;;;;;;5095335;28;20090;-77
2022/10/22 00:11:39;;;;;;;14.25;9.52;;;14.00;99.90;;;;;;5083257;28;20386;-77
2022/10/22 00:14:05;;;;;;;16.27;9.93;;;14.00;99.90;;;;;;5088123;28;20337;-79
2022/10/22 00:16:31;;;;;;;11.68;8.77;;;13.70;99.90;;;;;;5068817;28;20032;-76
2022/10/22 00:18:56;;;;;;;10.60;9.05;;;13.90;99.90;;;;;;5074731;28;20062;-78
2022/10/22 00:21:22;;;;;;;14.68;9.57;;;13.90;99.90;;;;;;5101220;28;20032;-77
2022/10/22 00:23:48;;;;;;;13.85;9.77;;;13.80;99.90;;;;;;5103784;28;20314;-77
2022/10/22 00:26:14;;;;;;;15.50;9.90;;;13.90;99.90;;;;;;5077021;28;20025;-76
2022/10/22 00:28:39;;;;;;;14.45;9.90;;;14.00;99.90;;;;;;5085860;28;20032;-76
2022/10/22 00:31:06;;;;;;;15.55;9.98;;;14.00;99.90;;;;;;5103873;28;20040;-78
2022/10/22 00:33:32;;;;;;;15.38;10.02;;;13.60;99.90;;;;;;5087830;28;20268;-76
2022/10/22 00:35:58;;;;;;;16.30;9.10;;;14.00;99.90;;;;;;5097719;28;20038;-77
2022/10/22 00:38:24;;;;;;;13.27;9.63;;;14.00;99.90;;;;;;5082530;28;20130;-76
2022/10/22 00:40:50;;;;;;;13.15;8.88;;;13.70;99.90;;;;;;5082625;28;20036;-76
2022/10/22 00:43:18;;;;;;;17.60;9.57;;;14.00;99.90;;;;;;5084270;28;20377;-75
2022/10/22 00:45:45;;;;;;;18.42;9.45;;;14.00;99.90;;;;;;5092038;28;20326;-77
2022/10/22 00:48:23;;;;;;;16.50;9.02;;;13.80;99.90;;;;;;5083076;28;20023;-75
2022/10/22 00:50:55;;;;;;;16.67;8.80;;;13.70;99.90;;;;;;5105413;28;20111;-77
2022/10/22 00:53:30;;;;;;;12.85;8.10;;;13.80;99.90;;;;;;5109716;28;20336;-77
2022/10/22 00:55:56;;;;;;;12.25;8.20;;;13.70;99.90;;;;;;5080592;28;20047;-75
2022/10/22 00:58:25;;;;;;;14.57;8.10;;;13.90;99.90;;;;;;5085014;28;20035;-76
2022/10/22 01:00:51;;;;;;;11.55;8.18;;;13.80;99.90;;;;;;5106337;28;20140;-77
2022/10/22 01:03:17;;;;;;;17.42;7.78;;;13.90;99.90;;;;;;5089603;28;20023;-75
2022/10/22 01:05:56;;;;;;;16.48;9.02;;;13.80;99.90;;;;;;5068020;28;20318;-76
2022/10/22 01:08:45;;;;;;;12.07;8.30;;;13.90;99.90;;;;;;5116681;27;20035;-75
2022/10/22 01:11:31;;;;;;;12.27;8.32;;;14.00;99.90;;;;;;5099653;28;20034;-76
2022/10/22 01:14:02;;;;;;;11.48;8.35;;;13.60;99.90;;;;;;5104950;28;20047;-76
2022/10/22 01:16:28;;;;;;;18.27;9.95;;;13.90;99.90;;;;;;5093603;28;20242;-79
2022/10/22 01:19:09;;;;;;;11.32;7.78;;;13.80;99.90;;;;;;5103040;28;20039;-77
2022/10/22 01:21:48;;;;;;;11.25;7.93;;;13.80;99.90;;;;;;5085015;28;20214;-78
2022/10/22 01:24:56;;;;;;;11.77;8.38;;;13.70;99.90;;;;;;5120297;28;20043;-78
2022/10/22 01:27:56;;;;;;;12.77;8.23;;;13.50;99.90;;;;;;5085240;28;20032;-75
2022/10/22 01:30:23;;;;;;;10.05;8.23;;;13.80;99.90;;;;;;5087989;28;20090;-76
2022/10/22 01:32:53;;;;;;;10.75;7.63;;;13.70;99.90;;;;;;5080181;28;20091;-76
2022/10/22 01:35:26;;;;;;;11.32;7.93;;;13.90;99.90;;;;;;5094258;28;20249;-76
2022/10/22 01:37:56;;;;;;;10.30;7.53;;;13.60;99.90;;;;;;5074313;28;20029;-78
2022/10/22 01:40:23;;;;;;;14.20;7.88;;;13.90;99.90;;;;;;5089200;28;20032;-79
2022/10/22 01:43:01;;;;;;;12.68;7.90;;;13.50;99.90;;;;;;5102810;28;20060;-77
2022/10/22 01:45:34;;;;;;;11.48;8.27;;;13.70;99.90;;;;;;5087847;28;20202;-78
2022/10/22 01:48:12;;;;;;;9.18;7.40;;;13.80;99.90;;;;;;5092570;28;20091;-78
2022/10/22 01:50:49;;;;;;;10.27;8.20;;;13.70;99.90;;;;;;5105525;28;20250;-77
2022/10/22 01:53:29;;;;;;;10.88;8.02;;;13.50;99.90;;;;;;5089688;28;20031;-76
2022/10/22 01:56:37;;;;;;;9.65;7.53;;;13.90;99.90;;;;;;5090275;28;20383;-75
2022/10/22 01:59:51;;;;;;;12.38;7.93;;;13.70;99.90;;;;;;5087877;28;20045;-76
2022/10/22 02:02:27;;;;;;;10.30;7.75;;;13.50;99.90;;;;;;5089963;28;20044;-76
2022/10/22 02:05:25;;;;;;;9.10;7.35;;;13.90;99.90;;;;;;5099299;28;20093;-77
2022/10/22 02:08:00;;;;;;;11.35;7.10;;;13.90;99.90;;;;;;5059147;28;20111;-77
2022/10/22 02:10:28;;;;;;;10.40;8.10;;;13.80;99.90;;;;;;5114708;28;20322;-74
2022/10/22 02:12:55;;;;;;;10.07;8.00;;;13.90;99.90;;;;;;5101550;28;20040;-77
2022/10/22 02:15:24;;;;;;;12.60;7.50;;;13.90;99.90;;;;;;5084553;28;20035;-75
2022/10/22 02:17:54;;;;;;;12.63;8.07;;;13.80;99.90;;;;;;5108544;28;20127;-75
2022/10/22 02:20:27;;;;;;;9.52;7.63;;;13.70;99.90;;;;;;5080882;28;20034;-75
2022/10/22 02:22:54;;;;;;;9.18;7.38;;;13.70;99.90;;;;;;5083677;28;20040;-77
2022/10/22 02:25:22;;;;;;;12.25;7.75;;;13.60;99.90;;;;;;5088771;28;20097;-77
2022/10/22 02:28:00;;;;;;;10.20;7.25;;;13.70;99.90;;;;;;5112250;28;20039;-76
2022/10/22 02:30:26;;;;;;;9.82;7.38;;;13.70;99.90;;;;;;5094119;28;20059;-78
2022/10/22 02:33:03;;;;;;;14.98;8.27;;;13.60;99.90;;;;;;5072576;28;20020;-78
2022/10/22 02:35:30;;;;;;;11.02;7.70;;;13.70;99.90;;;;;;5091371;28;20359;-78
2022/10/22 02:37:58;;;;;;;9.98;7.25;;;13.70;99.90;;;;;;5095581;28;20218;-78
2022/10/22 02:40:25;;;;;;;11.93;7.15;;;13.50;99.90;;;;;;5081842;28;21288;-77
2022/10/22 02:42:51;;;;;;;11.23;7.75;;;13.60;99.90;;;;;;5090374;28;20160;-76
2022/10/22 02:45:18;;;;;;;13.63;8.25;;;13.90;99.90;;;;;;5088278;28;20106;-75
2022/10/22 02:47:44;;;;;;;12.82;8.70;;;13.80;99.90;;;;;;5100419;28;20112;-75
2022/10/22 02:50:10;;;;;;;13.02;7.90;;;13.90;99.90;;;;;;5086346;28;21766;-76
2022/10/22 02:52:36;;;;;;;16.45;8.40;;;14.10;99.90;;;;;;5104970;28;20222;-79
2022/10/22 02:55:02;;;;;;;11.52;7.85;;;13.70;99.90;;;;;;5099984;28;20085;-76
2022/10/22 02:57:28;;;;;;;9.85;7.97;;;13.90;99.90;;;;;;5086794;28;20099;-76
2022/10/22 02:59:53;;;;;;;17.55;8.15;;;13.80;99.90;;;;;;5082885;28;20055;-76
2022/10/22 03:02:19;;;;;;;14.05;8.05;;;13.70;99.90;;;;;;5092446;28;20216;-77
2022/10/22 03:04:45;;;;;;;10.88;8.10;;;14.00;99.90;;;;;;5086664;28;20036;-78
2022/10/22 03:07:10;;;;;;;12.82;8.13;;;13.90;99.90;;;;;;5083316;28;20024;-77
2022/10/22 03:09:36;;;;;;;14.43;8.60;;;13.90;99.90;;;;;;5069665;28;20024;-77
2022/10/22 03:12:01;;;;;;;14.63;8.50;;;13.90;99.90;;;;;;5085838;28;20036;-76
2022/10/22 03:14:27;;;;;;;16.63;8.38;;;13.60;99.90;;;;;;5076664;28;20039;-77
2022/10/22 03:16:53;;;;;;;11.70;8.43;;;14.00;99.90;;;;;;5081269;28;20059;-78
2022/10/22 03:19:18;;;;;;;10.85;8.50;;;13.50;99.90;;;;;;5079459;28;20034;-77
2022/10/22 03:22:04;;;;;;;15.35;8.90;;;13.70;99.90;;;;;;5077524;28;20027;-77
2022/10/22 03:24:40;;;;;;;16.42;8.90;;;13.90;99.90;;;;;;5110373;28;20425;-76
2022/10/22 03:27:05;;;;;;;11.60;9.00;;;13.70;99.90;;;;;;5095869;28;20047;-79
2022/10/22 03:29:35;;;;;;;16.63;8.55;;;14.00;99.90;;;;;;5070671;28;20103;-77
2022/10/22 03:32:01;;;;;;;14.73;8.70;;;13.60;99.90;;;;;;5087031;28;20058;-78
2022/10/22 03:34:27;;;;;;;17.30;8.98;;;13.60;99.90;;;;;;5066992;28;20025;-77
2022/10/22 03:36:53;;;;;;;15.70;9.75;;;13.40;99.90;;;;;;5105992;28;20036;-79
2022/10/22 03:39:20;;;;;;;13.88;9.30;;;13.70;99.90;;;;;;5061906;28;20081;-78
2022/10/22 03:41:48;;;;;;;11.00;8.65;;;13.80;99.90;;;;;;5099033;28;20020;-80
2022/10/22 03:44:15;;;;;;;13.70;8.90;;;13.40;99.90;;;;;;5096357;28;20055;-78
2022/10/22 03:46:41;;;;;;;15.63;9.25;;;13.50;99.90;;;;;;5086327;28;20067;-79
2022/10/22 03:49:07;;;;;;;11.98;8.85;;;13.90;99.90;;;;;;5087924;28;20031;-79
2022/10/22 03:51:33;;;;;;;11.10;8.98;;;13.90;99.90;;;;;;5085838;28;20341;-79
2022/10/22 03:53:58;;;;;;;11.95;7.97;;;13.90;99.90;;;;;;5081681;28;20045;-77
2022/10/22 03:56:24;;;;;;;13.13;9.32;;;13.70;99.90;;;;;;5076174;28;20031;-77
2022/10/22 03:58:50;;;;;;;15.57;8.60;;;13.50;99.90;;;;;;5087437;28;20587;-76
2022/10/22 04:01:16;;;;;;;15.15;8.80;;;13.70;99.90;;;;;;5077556;28;20032;-77
2022/10/22 04:03:41;;;;;;;12.73;8.93;;;13.70;99.90;;;;;;5086518;28;20039;-76
2022/10/22 04:06:10;;;;;;;12.75;8.18;;;13.50;99.90;;;;;;5086840;28;20039;-76
2022/10/22 04:08:38;;;;;;;15.18;8.32;;;13.70;99.90;;;;;;5094237;28;20032;-77
2022/10/22 04:11:04;;;;;;;14.13;9.88;;;13.80;99.90;;;;;;5092245;28;20036;-76
2022/10/22 04:13:29;;;;;;;16.50;9.35;;;13.80;99.90;;;;;;5101859;28;20118;-77
2022/10/22 04:15:55;;;;;;;13.73;9.05;;;13.60;99.90;;;;;;5086570;28;20043;-77
2022/10/22 04:18:22;;;;;;;12.23;8.68;;;13.50;99.90;;;;;;5089226;28;20046;-78
2022/10/22 04:20:50;;;;;;;13.75;9.20;;;13.30;99.90;;;;;;5103893;28;20116;-75
2022/10/22 04:23:16;;;;;;;15.90;9.38;;;13.30;99.90;;;;;;5103864;28;20039;-76
2022/10/22 04:25:42;;;;;;;13.73;8.48;;;13.50;99.90;;;;;;5079253;28;20027;-76
2022/10/22 04:28:08;;;;;;;12.70;8.82;;;13.40;99.90;;;;;;5089995;28;20229;-77
2022/10/22 04:30:35;;;;;;;11.95;8.38;;;13.70;99.90;;;;;;5104278;28;20103;-78
2022/10/22 04:33:01;;;;;;;14.20;9.20;;;13.40;99.90;;;;;;5102039;28;20157;-77
2022/10/22 04:35:28;;;;;;;15.40;9.55;;;13.30;99.90;;;;;;5084806;28;20028;-76
2022/10/22 04:37:54;;;;;;;14.00;8.13;;;13.10;99.90;;;;;;5082392;28;20423;-77
2022/10/22 04:40:20;;;;;;;15.77;9.32;;;13.70;99.90;;;;;;5098879;28;20090;-77
2022/10/22 04:42:46;;;;;;;19.30;10.60;;;13.20;99.90;;;;;;5086166;28;20054;-77
2022/10/22 04:45:12;;;;;;;14.10;9.00;;;13.30;99.90;;;;;;5101410;28;20139;-77
2022/10/22 04:47:37;;;;;;;12.15;9.40;;;13.10;99.90;;;;;;5089213;28;20032;-77
2022/10/22 04:50:04;;;;;;;12.60;9.48;;;13.20;99.90;;;;;;5069013;28;20117;-75
2022/10/22 04:52:30;;;;;;;15.75;9.73;;;13.20;99.90;;;;;;5102963;28;20338;-79
2022/10/22 04:54:56;;;;;;;14.48;9.63;;;13.30;99.90;;;;;;5103305;28;20420;-78
2022/10/22 04:57:21;;;;;;;15.82;10.80;;;13.10;99.90;;;;;;5078034;28;20115;-78
2022/10/22 04:59:47;;;;;;;15.45;10.07;;;13.20;99.90;;;;;;5086656;28;20024;-79
2022/10/22 05:02:13;;;;;;;17.15;11.27;;;13.40;99.90;;;;;;5062954;28;20032;-79
2022/10/22 05:04:38;;;;;;;15.32;9.63;;;13.20;99.90;;;;;;5085915;28;20081;-79
2022/10/22 05:07:04;;;;;;;16.95;9.93;;;13.20;99.90;;;;;;5085210;28;20016;-77
2022/10/22 05:09:30;;;;;;;16.05;11.38;;;13.50;99.90;;;;;;5101628;28;20029;-77
2022/10/22 05:11:55;;;;;;;19.00;10.82;;;13.40;99.90;;;;;;5068682;28;20032;-78
2022/10/22 05:14:23;;;;;;;14.98;10.15;;;13.60;99.90;;;;;;5097865;28;20129;-77
2022/10/22 05:16:49;;;;;;;16.88;10.45;;;13.10;99.90;;;;;;5101909;28;20036;-77
2022/10/22 05:19:22;;;;;;;16.25;10.90;;;13.50;99.90;;;;;;5095423;28;20044;-78
2022/10/22 05:21:49;;;;;;;19.95;10.50;;;13.20;99.90;;;;;;5115369;27;20198;-78
2022/10/22 05:24:15;;;;;;;16.60;10.98;;;13.60;99.90;;;;;;5087500;28;20084;-75
2022/10/22 05:26:41;;;;;;;15.02;10.73;;;13.10;99.90;;;;;;5086255;28;20142;-77
2022/10/22 05:29:07;;;;;;;16.10;10.57;;;13.30;99.90;;;;;;5088471;28;20062;-79
2022/10/22 05:31:33;;;;;;;17.70;10.52;;;13.50;99.90;;;;;;5083439;28;20034;-81
2022/10/22 05:33:59;;;;;;;16.05;10.20;;;13.60;99.90;;;;;;5106387;28;20081;-76
2022/10/22 05:36:24;;;;;;;16.45;10.07;;;13.60;99.90;;;;;;5067649;28;20301;-80
2022/10/22 05:38:50;;;;;;;18.77;10.75;;;13.50;99.90;;;;;;5064603;28;20319;-78
2022/10/22 05:41:22;;;;;;;18.10;10.23;;;13.70;99.90;;;;;;5069996;28;20031;-77
2022/10/22 05:43:48;;;;;;;20.00;10.10;;;13.60;99.90;;;;;;5088239;28;20048;-77
2022/10/22 05:46:20;;;;;;;13.13;9.30;;;13.40;99.90;;;;;;5078161;28;20061;-78
2022/10/22 05:48:53;;;;;;;15.73;10.23;;;13.20;99.90;;;;;;5087361;28;20313;-76
2022/10/22 05:51:19;;;;;;;13.85;9.60;;;13.60;99.90;;;;;;5105065;28;20092;-76
2022/10/22 05:53:45;;;;;;;13.60;9.70;;;13.30;99.90;;;;;;5073316;28;20050;-76
2022/10/22 05:56:13;;;;;;;16.88;9.98;;;13.60;99.90;;;;;;5080492;28;20028;-76
2022/10/22 05:58:40;;;;;;;11.07;9.60;;;13.60;99.90;;;;;;5088371;28;20710;-77
2022/10/22 06:01:14;;;;;;;13.57;9.60;;;13.30;99.90;;;;;;5086499;28;20127;-78
2022/10/22 06:03:40;;;;;;;15.73;9.68;;;13.50;99.90;;;;;;5103241;28;20028;-76
2022/10/22 06:06:19;;;;;;;16.52;10.20;;;13.60;99.90;;;;;;5097717;28;20074;-76
2022/10/22 06:08:50;;;;;;;18.00;10.88;;;13.70;99.90;;;;;;5093900;28;20035;-76
2022/10/22 06:11:18;;;;;;;19.65;10.60;;;13.50;99.90;;;;;;5089179;28;20051;-76
2022/10/22 06:13:44;;;;;;;14.85;10.70;;;13.70;99.90;;;;;;5084960;28;20213;-78
2022/10/22 06:16:10;;;;;;;18.33;9.65;;;13.40;99.90;;;;;;5080812;28;20310;-76
2022/10/22 06:18:36;;;;;;;16.50;10.18;;;13.50;99.90;;;;;;5107701;28;20085;-76
2022/10/22 06:21:20;;;;;;;12.30;8.90;;;13.40;99.90;;;;;;5101265;28;20035;-78
2022/10/22 06:23:45;;;;;;;17.50;10.40;;;13.40;99.90;;;;;;5101158;28;20032;-76
2022/10/22 06:26:11;;;;;;;16.35;10.65;;;13.90;99.90;;;;;;5068597;28;20023;-77
2022/10/22 06:28:37;;;;;;;16.20;10.30;;;13.60;99.90;;;;;;5068493;28;20077;-78
2022/10/22 06:31:03;;;;;;;12.88;9.18;;;14.00;99.90;;;;;;5107846;28;20039;-76
2022/10/22 06:33:32;;;;;;;15.68;9.48;;;13.90;99.90;;;;;;5082796;28;20103;-77
2022/10/22 06:36:15;;;;;;;16.30;10.55;;;13.60;99.90;;;;;;5086764;28;20027;-77
2022/10/22 06:38:41;;;;;;;15.05;9.93;;;13.50;99.90;;;;;;5079127;28;20056;-78
2022/10/22 06:41:09;;;;;;;15.48;10.02;;;13.90;99.90;;;;;;5104865;28;20039;-77
2022/10/22 06:43:35;;;;;;;15.48;9.07;;;14.00;99.90;;;;;;5095503;28;20113;-76
2022/10/22 06:46:04;;;;;;;16.30;9.20;;;13.90;99.90;;;;;;5092249;28;20302;-76
2022/10/22 06:48:30;;;;;;;14.88;9.38;;;13.90;99.90;;;;;;5078104;28;20095;-78
2022/10/22 06:51:00;;;;;;;17.30;11.05;;;13.50;99.90;;;;;;5087699;28;20028;-77
2022/10/22 06:53:25;;;;;;;10.43;8.55;;;13.70;99.90;;;;;;5084720;28;20030;-78
2022/10/22 06:55:51;;;;;;;16.15;10.40;;;13.90;99.90;;;;;;5105312;28;20040;-78
2022/10/22 06:58:16;;;;;;;14.45;10.50;;;13.60;99.90;;;;;;5086207;28;20034;-77
2022/10/22 07:00:42;;;;;;;18.73;10.15;;;13.80;99.90;;;;;;5091382;28;20031;-77
2022/10/22 07:03:11;;;;;;;15.75;9.65;;;13.60;99.90;;;;;;5083937;28;20032;-78
2022/10/22 07:05:37;;;;;;;12.45;9.48;;;14.20;99.90;;;;;;5105821;28;20047;-74
2022/10/22 07:08:03;;;;;;;17.25;10.20;;;14.00;99.90;;;;;;5067135;28;20064;-77
2022/10/22 07:10:28;;;;;;;13.82;9.85;;;13.80;99.90;;;;;;5083541;28;20055;-77
2022/10/22 07:12:54;;;;;;;13.65;10.02;;;14.00;99.90;;;;;;5109213;28;20187;-76
2022/10/22 07:15:20;;;;;;;15.15;10.30;;;14.10;99.90;;;;;;5088243;28;20020;-78
2022/10/22 07:17:45;;;;;;;19.33;11.02;;;13.80;99.90;;;;;;5075291;28;20397;-77
2022/10/22 07:20:11;;;;;;;14.60;9.75;;;13.90;99.90;;;;;;5087564;28;20067;-77
2022/10/22 07:22:37;;;;;;;12.52;8.75;;;13.90;99.90;;;;;;5069840;28;20036;-77
2022/10/22 07:25:03;;;;;;;15.63;9.75;;;14.40;99.90;;;;;;5074380;28;20063;-75
2022/10/22 07:27:29;;;;;;;14.85;9.80;;;14.10;99.90;;;;;;5080143;28;20082;-78
2022/10/22 07:29:55;;;;;;;15.23;9.70;;;14.40;99.90;;;;;;5080259;28;20196;-76
2022/10/22 07:32:20;;;;;;;12.85;9.27;;;14.20;99.90;;;;;;5076903;28;20204;-76
2022/10/22 07:34:46;;;;;;;10.45;8.38;;;14.00;99.90;;;;;;5088393;28;20102;-76
2022/10/22 07:37:11;;;;;;;15.18;8.32;;;14.10;99.90;;;;;;5068197;28;20086;-75
2022/10/22 07:39:37;;;;;;;11.38;7.85;;;14.50;99.90;;;;;;5086631;28;20055;-77
2022/10/22 07:42:03;;;;;;;13.25;8.05;;;14.60;99.90;;;;;;5076315;28;20238;-77
2022/10/22 07:44:28;;;;;;;15.10;8.13;;;14.30;99.90;;;;;;5105805;28;20055;-75
2022/10/22 07:46:54;;;;;;;11.80;7.78;;;14.60;99.90;;;;;;5092379;28;20069;-77
2022/10/22 07:49:20;;;;;;;12.98;8.95;;;14.50;99.90;;;;;;5075804;28;20073;-76
2022/10/22 07:51:45;;;;;;;13.18;8.27;;;14.50;99.90;;;;;;5090344;28;20046;-75
2022/10/22 07:54:11;;;;;;;9.13;6.35;;;14.60;99.90;;;;;;5099296;28;20024;-77
2022/10/22 07:56:37;;;;;;;12.13;7.75;;;14.20;99.90;;;;;;5091011;28;20067;-74
2022/10/22 07:59:02;;;;;;;13.10;7.65;;;14.60;99.90;;;;;;5090009;28;20043;-76
2022/10/22 08:01:28;;;;;;;13.63;7.45;;;14.40;99.90;;;;;;5087924;28;20235;-76
2022/10/22 08:03:54;;;;;;;10.65;7.32;;;14.70;99.90;;;;;;5090084;28;20063;-77
2022/10/22 08:06:19;;;;;;;14.32;8.25;;;14.40;99.90;;;;;;5090532;28;20015;-78
2022/10/22 08:08:45;;;;;;;12.70;7.40;;;14.50;99.90;;;;;;5080267;28;20028;-75
2022/10/22 08:11:11;;;;;;;16.65;7.20;;;14.50;99.90;;;;;;5095903;28;20031;-79
2022/10/22 08:13:38;;;;;;;10.55;6.88;;;14.60;99.90;;;;;;5100187;28;20028;-76
2022/10/22 08:16:04;;;;;;;13.38;7.05;;;14.80;99.90;;;;;;5088620;28;20078;-77
2022/10/22 08:18:29;;;;;;;19.88;9.35;;;14.70;99.90;;;;;;5078448;28;20502;-76
2022/10/22 08:20:55;;;;;;;14.82;8.43;;;14.30;99.90;;;;;;5076501;28;20381;-79
2022/10/22 08:23:21;;;;;;;12.20;7.50;;;14.60;99.90;;;;;;5087482;28;20059;-76
2022/10/22 08:25:46;;;;;;;12.77;7.22;;;14.40;99.90;;;;;;5063579;28;20058;-75
2022/10/22 08:28:12;;;;;;;15.45;6.97;;;14.60;99.90;;;;;;5077172;28;20035;-76
2022/10/22 08:30:39;;;;;;;10.82;6.82;;;14.40;99.90;;;;;;5079503;28;20081;-75
2022/10/22 08:33:05;;;;;;;12.07;6.70;;;14.40;99.90;;;;;;5090095;28;20032;-76
2022/10/22 08:35:31;;;;;;;13.07;6.70;;;14.60;99.90;;;;;;5090721;28;20287;-77
2022/10/22 08:37:56;;;;;;;11.15;6.82;;;15.00;99.90;;;;;;5095866;28;20039;-76
2022/10/22 08:40:31;;;;;;;10.95;6.18;;;14.80;99.90;;;;;;5112170;28;20047;-77
2022/10/22 08:43:25;;;;;;;8.93;5.70;;;14.70;99.90;;;;;;5075227;28;20547;-75
2022/10/22 08:46:03;;;;;;;11.27;5.70;;;14.80;99.90;;;;;;5079213;28;20060;-77
2022/10/22 08:48:40;;;;;;;9.57;4.60;;;15.10;99.90;;;;;;5108343;28;20016;-78
2022/10/22 08:51:12;;;;;;;9.55;5.70;;;15.20;99.90;;;;;;5091285;28;20042;-75
2022/10/22 08:53:40;;;;;;;10.20;5.22;;;15.60;99.90;;;;;;5073224;28;20314;-78
2022/10/22 08:56:06;;;;;;;11.02;5.75;;;15.40;99.90;;;;;;5097657;28;20044;-75
2022/10/22 08:58:44;;;;;;;12.65;5.82;;;15.80;99.90;;;;;;5074165;28;20027;-77
2022/10/22 09:01:15;;;;;;;6.75;4.80;;;15.50;99.90;;;;;;5089137;28;20039;-77
2022/10/22 09:04:02;;;;;;;12.68;5.38;;;15.60;99.90;;;;;;5073270;28;20087;-76
2022/10/22 09:06:31;;;;;;;7.82;4.78;;;16.00;99.90;;;;;;5061433;28;20037;-77
2022/10/22 09:08:58;;;;;;;12.50;4.72;;;15.90;99.90;;;;;;5112278;28;20107;-77
2022/10/22 09:11:27;;;;;;;10.20;4.30;;;16.20;99.90;;;;;;5093488;28;20040;-78
2022/10/22 09:13:54;;;;;;;14.57;5.38;;;16.00;99.90;;;;;;5097315;28;20043;-78
2022/10/22 09:16:35;;;;;;;9.65;3.78;;;16.40;99.90;;;;;;5068330;28;20031;-77
2022/10/22 09:19:15;;;;;;;7.57;3.80;;;16.20;99.90;;;;;;5093970;28;20382;-76
2022/10/22 09:21:41;;;;;;;11.35;4.93;;;16.70;99.90;;;;;;5094038;28;20028;-76
2022/10/22 09:24:28;;;;;;;9.05;4.10;;;16.50;99.90;;;;;;5087774;28;20158;-78
2022/10/22 09:26:56;;;;;;;10.98;3.55;;;16.40;99.90;;;;;;5080514;28;20189;-77
2022/10/22 09:29:29;;;;;;;8.85;3.92;;;16.60;99.90;;;;;;5086821;28;20227;-77
2022/10/22 09:31:54;;;;;;;10.15;3.78;;;16.70;99.90;;;;;;5081161;28;20252;-75
2022/10/22 09:34:21;;;;;;;10.82;3.70;;;16.70;99.90;;;;;;5074567;28;20038;-75
2022/10/22 09:36:46;;;;;;;7.65;3.85;;;16.80;99.90;;;;;;5070354;28;20034;-75
2022/10/22 09:39:25;;;;;;;8.32;3.50;;;16.70;99.90;;;;;;5055611;28;20037;-76
2022/10/22 09:41:51;;;;;;;7.55;3.60;;;16.90;99.90;;;;;;5097170;28;20100;-76
2022/10/22 09:44:18;;;;;;;11.25;4.25;;;16.90;99.90;;;;;;5071836;28;20044;-77
2022/10/22 09:46:44;;;;;;;9.15;3.60;;;17.00;99.90;;;;;;5082464;28;20090;-75
2022/10/22 09:49:16;;;;;;;7.60;3.65;;;17.10;99.90;;;;;;5097747;28;20074;-75
2022/10/22 09:51:54;;;;;;;10.05;3.90;;;17.00;99.90;;;;;;5094920;28;20032;-74
2022/10/22 09:54:23;;;;;;;9.10;3.58;;;16.90;99.90;;;;;;5091314;28;20368;-76
2022/10/22 09:56:51;;;;;;;9.23;2.97;;;16.90;99.90;;;;;;5109485;28;20306;-75
2022/10/22 09:59:23;;;;;;;9.82;3.60;;;17.00;99.90;;;;;;5074915;28;20032;-75
2022/10/22 10:01:56;;;;;;;5.75;3.50;;;16.90;99.90;;;;;;5087659;28;20040;-75
2022/10/22 10:04:22;;;;;;;7.85;3.33;;;15.70;99.90;;;;;;5083433;28;20222;-75
2022/10/22 10:06:54;;;;;;;10.38;3.33;;;16.80;99.90;;;;;;5072750;28;20025;-76
2022/10/22 10:09:23;;;;;;;8.90;3.78;;;16.80;99.90;;;;;;5076300;28;20033;-75
2022/10/22 10:12:16;;;;;;;14.45;3.60;;;16.70;99.90;;;;;;5087125;28;20206;-74
2022/10/22 10:14:58;;;;;;;9.40;3.22;;;16.40;99.90;;;;;;5116699;28;20044;-75
2022/10/22 10:17:47;;;;;;;8.68;3.30;;;16.50;99.90;;;;;;5075045;28;20028;-74
2022/10/22 10:20:22;;;;;;;7.35;3.40;;;16.40;99.90;;;;;;5080617;28;20399;-76
2022/10/22 10:22:57;;;;;;;13.27;4.32;;;16.50;99.90;;;;;;5082787;28;20032;-76
2022/10/22 10:25:32;;;;;;;7.75;3.25;;;16.30;99.90;;;;;;5115589;27;20091;-76
2022/10/22 10:28:20;;;;;;;8.20;4.15;;;16.20;99.90;;;;;;5078969;28;20047;-77
2022/10/22 10:31:10;;;;;;;5.40;3.28;;;16.20;99.90;;;;;;5086088;28;20033;-77
2022/10/22 10:34:01;;;;;;;11.02;4.47;;;16.20;99.90;;;;;;5093580;28;20064;-75
2022/10/22 10:36:35;;;;;;;7.40;4.10;;;16.30;99.90;;;;;;5105626;28;20050;-76
2022/10/22 10:39:32;;;;;;;11.27;4.50;;;16.30;99.90;;;;;;5097142;28;20036;-81
2022/10/22 10:42:40;;;;;;;9.82;4.70;;;16.20;99.90;;;;;;5085741;27;20052;-78
2022/10/22 10:45:40;;;;;;;11.13;4.68;;;16.20;99.90;;;;;;5076467;28;20415;-74
2022/10/22 10:48:21;;;;;;;15.38;5.10;;;16.30;99.90;;;;;;5074628;28;20223;-75
2022/10/22 10:51:04;;;;;;;9.80;4.88;;;16.30;99.90;;;;;;5081354;28;20028;-77
2022/10/22 10:53:42;;;;;;;8.65;4.57;;;16.40;99.90;;;;;;5071764;28;20131;-78
2022/10/22 10:56:29;;;;;;;7.72;4.43;;;16.30;99.90;;;;;;5105326;28;20028;-74
2022/10/22 10:59:26;;;;;;;7.85;5.07;;;16.40;99.90;;;;;;5094331;28;20055;-73
2022/10/22 11:01:54;;;;;;;9.98;4.95;;;16.40;99.90;;;;;;5091642;28;20115;-74
2022/10/22 11:04:40;;;;;;;9.63;4.63;;;16.30;99.90;;;;;;5086896;28;20020;-72
2022/10/22 11:07:12;;;;;;;11.57;5.00;;;16.30;99.90;;;;;;5080179;28;20071;-73
2022/10/22 11:09:49;;;;;;;9.50;4.32;;;16.30;99.90;;;;;;5092954;28;20109;-75
2022/10/22 11:12:22;;;;;;;10.63;4.72;;;16.30;99.90;;;;;;5095325;28;20040;-78
2022/10/22 11:15:12;;;;;;;8.45;4.70;;;16.40;99.90;;;;;;5099576;28;20058;-78
2022/10/22 11:17:43;;;;;;;7.90;4.20;;;16.30;99.90;;;;;;5087908;28;20230;-76
2022/10/22 11:20:17;;;;;;;9.48;5.05;;;16.20;99.90;;;;;;5085058;28;20187;-75
2022/10/22 11:22:54;;;;;;;8.32;4.45;;;16.20;99.90;;;;;;5091083;28;20043;-77
2022/10/22 11:25:26;;;;;;;6.90;4.50;;;16.10;99.90;;;;;;5102251;28;20271;-77
2022/10/22 11:28:10;;;;;;;8.73;4.93;;;16.10;99.90;;;;;;5075256;28;20104;-77
2022/10/22 11:30:37;;;;;;;9.18;4.82;;;16.10;99.90;;;;;;5087556;28;20473;-78
2022/10/22 11:33:10;;;;;;;9.98;5.53;;;16.00;99.90;;;;;;5065632;28;20046;-77
2022/10/22 11:35:44;;;;;;;9.55;4.97;;;16.00;99.90;;;;;;5092697;28;20048;-78
2022/10/22 11:38:17;;;;;;;10.52;5.43;;;16.00;99.90;;;;;;5069993;28;20056;-76
2022/10/22 11:41:02;;;;;;;8.38;5.15;;;16.20;99.90;;;;;;5106191;28;20023;-78
2022/10/22 11:43:30;;;;;;;;;;;16.10;99.90;;;;;;5100995;28;20188;-78
2022/10/22 11:46:19;;;;;;;10.13;5.65;;;16.20;99.90;;;;;;5103250;28;20010;-79
2022/10/22 11:49:01;;;;;;;7.93;5.70;;;16.30;99.90;;;;;;5100697;28;20040;-76
2022/10/22 11:51:38;;;;;;;8.15;4.80;;;16.70;99.90;;;;;;5096253;28;20076;-74
2022/10/22 11:54:41;;;;;;;9.68;5.50;;;16.70;99.90;;;;;;5094778;28;20031;-75
2022/10/22 11:57:20;;;;;;;7.68;4.80;;;16.40;99.90;;;;;;5085225;28;20102;-76
2022/10/22 11:59:46;;;;;;;10.60;4.47;;;16.50;99.90;;;;;;5096995;28;20036;-77
2022/10/22 12:02:40;;;;;;;12.95;5.25;;;16.70;99.90;;;;;;5089011;28;20046;-76
2022/10/22 12:05:18;;;;;;;9.07;5.30;;;16.60;99.90;;;;;;5111365;27;20017;-75
2022/10/22 12:07:58;;;;;;;9.20;5.20;;;16.40;99.90;;;;;;5093623;28;20035;-76
2022/10/22 12:10:34;;;;;;;8.18;4.90;;;16.60;99.90;;;;;;5084891;28;20098;-76
2022/10/22 12:13:25;;;;;;;9.63;5.40;;;16.60;99.90;;;;;;5091423;28;20032;-78
2022/10/22 12:15:54;;;;;;;8.35;5.32;;;16.30;99.90;;;;;;5093239;28;20028;-75
2022/10/22 12:18:25;;;;;;;8.43;5.40;;;16.30;99.90;;;;;;5102946;28;20028;-78
2022/10/22 12:20:54;;;;;;;13.00;5.95;;;16.40;99.90;;;;;;5087237;28;20267;-78
2022/10/22 12:23:27;;;;;;;8.68;5.60;;;16.50;99.90;;;;;;5107904;28;20187;-76
2022/10/22 12:25:53;;;;;;;13.68;8.43;;;16.60;99.90;;;;;;5095944;28;20046;-75
2022/10/22 12:28:19;;;;;;;13.48;7.30;;;16.50;99.90;;;;;;5068039;28;20016;-77
2022/10/22 12:30:45;;;;;;;10.90;6.13;;;16.50;99.90;;;;;;5070795;28;20121;-76
2022/10/22 12:33:22;;;;;;;9.65;5.43;;;16.70;99.90;;;;;;5102860;28;20108;-76
2022/10/22 12:35:51;;;;;;;11.15;5.60;;;16.70;99.90;;;;;;5089191;28;20061;-76
2022/10/22 12:38:21;;;;;;;8.05;4.70;;;16.80;99.90;;;;;;5095761;28;20011;-75
2022/10/22 12:40:49;;;;;;;10.57;4.60;;;16.70;99.90;;;;;;5086383;28;20202;-75
2022/10/22 12:43:23;;;;;;;6.57;4.25;;;16.60;99.90;;;;;;5085611;28;20034;-76
2022/10/22 12:45:50;;;;;;;6.47;4.00;;;16.60;99.90;;;;;;5086516;28;20310;-76
2022/10/22 12:48:26;;;;;;;8.82;4.80;;;16.80;99.90;;;;;;5078769;28;20035;-75
2022/10/22 12:50:58;;;;;;;8.57;4.28;;;16.70;99.90;;;;;;5089585;28;20038;-79
2022/10/22 12:53:38;;;;;;;8.68;4.20;;;16.50;99.90;;;;;;5080455;28;21481;-74
2022/10/22 12:56:14;;;;;;;10.57;7.32;;;16.60;99.90;;;;;;5106629;28;20251;-75
2022/10/22 12:58:55;;;;;;;13.38;8.50;;;16.50;99.90;;;;;;5105114;28;20046;-74